Time;durP1;ratioP1;P1;durP2;ratioP2;P2;SDS_P1;SDS_P2;PMS_P1;PMS_P2;Temp;Humidity;BMP_temperature;BMP_pressure;BME280_temperature;BME280_humidity;BME280_pressure;Samples;Min_cycle;Max_cycle;Signal;HPM_P1;HPM_P2
2023/08/23 00:00:38;;;;;;;11.77;10.68;;;;;;;34.13;35.79;101128.69;143718;649;47008;-72
2023/08/23 00:03:04;;;;;;;16.85;10.63;;;;;;;34.14;36.00;101138.69;143717;585;47004;-72
2023/08/23 00:05:31;;;;;;;12.80;10.60;;;;;;;34.12;36.53;101141.81;143720;582;46006;-72
2023/08/23 00:07:57;;;;;;;13.82;10.55;;;;;;;34.07;36.66;101149.59;143717;589;47002;-73
2023/08/23 00:10:23;;;;;;;11.60;10.50;;;;;;;34.00;36.46;101136.25;143715;616;47004;-72
2023/08/23 00:12:53;;;;;;;11.48;10.27;;;;;;;34.00;36.32;101136.25;143716;587;47004;-73
2023/08/23 00:15:19;;;;;;;12.70;10.80;;;;;;;33.98;36.78;101132.97;143718;583;46006;-72
2023/08/23 00:17:45;;;;;;;13.23;10.35;;;;;;;34.02;36.38;101125.56;143721;614;47006;-72
2023/08/23 00:20:12;;;;;;;12.85;10.27;;;;;;;33.99;35.99;101137.41;143717;601;47004;-72
2023/08/23 00:22:38;;;;;;;11.85;10.75;;;;;;;33.94;36.85;101130.09;143715;584;47004;-72
2023/08/23 00:25:05;;;;;;;11.85;9.52;;;;;;;33.94;37.07;101137.66;143719;570;47006;-73
2023/08/23 00:27:31;;;;;;;13.55;10.38;;;;;;;33.90;37.67;101131.94;143716;576;47002;-72
2023/08/23 00:29:58;;;;;;;11.02;9.93;;;;;;;33.87;36.56;101121.50;143716;629;47004;-72
2023/08/23 00:32:24;;;;;;;10.57;9.50;;;;;;;33.87;37.00;101135.44;143717;581;47004;-72
2023/08/23 00:34:50;;;;;;;11.35;9.95;;;;;;;33.86;37.42;101126.25;143719;608;47006;-72
2023/08/23 00:37:16;;;;;;;14.85;10.70;;;;;;;33.86;37.35;101128.22;143718;574;47002;-72
2023/08/23 00:39:44;;;;;;;10.25;9.27;;;;;;;33.84;37.22;101124.97;143719;585;47008;-72
2023/08/23 00:42:10;;;;;;;11.82;9.93;;;;;;;33.81;37.65;101140.38;143716;585;47004;-72
2023/08/23 00:44:36;;;;;;;12.35;9.15;;;;;;;33.76;38.03;101142.59;143719;657;46006;-72
2023/08/23 00:47:04;;;;;;;11.85;8.82;;;;;;;33.70;38.38;101137.28;143717;575;47002;-72
2023/08/23 00:49:34;;;;;;;10.80;9.45;;;;;;;33.63;38.04;101125.06;143717;614;47012;-73
2023/08/23 00:52:02;;;;;;;12.25;9.63;;;;;;;33.53;37.83;101127.16;143716;569;47006;-72
2023/08/23 00:54:29;;;;;;;15.05;9.93;;;;;;;33.61;37.95;101121.84;143716;567;47928;-72
2023/08/23 00:56:57;;;;;;;10.80;9.32;;;;;;;33.62;37.53;101124.25;143723;621;48008;-72
2023/08/23 00:59:23;;;;;;;9.90;8.85;;;;;;;33.71;37.65;101143.66;143718;603;47012;-71
2023/08/23 03:02:32;;;;;;;16.12;10.93;;;;;;;33.03;41.45;101162.37;143715;668;47008;-73
2023/08/23 03:04:59;;;;;;;15.50;11.38;;;;;;;33.03;40.81;101154.03;143714;600;47004;-74
2023/08/23 03:07:25;;;;;;;19.00;11.82;;;;;;;33.03;41.36;101144.88;143714;573;47004;-74
2023/08/23 03:09:51;;;;;;;15.38;11.48;;;;;;;32.98;42.00;101153.44;143714;753;47004;-74
2023/08/23 03:12:17;;;;;;;14.32;10.75;;;;;;;32.97;42.19;101152.63;143715;733;47006;-73
2023/08/23 03:14:44;;;;;;;15.00;11.65;;;;;;;32.89;42.25;101157.12;143717;587;46925;-74
2023/08/23 03:17:10;;;;;;;16.55;11.35;;;;;;;32.86;42.71;101157.78;143716;572;46926;-74
2023/08/23 03:19:37;;;;;;;18.58;11.18;;;;;;;32.76;43.18;101163.72;143717;610;47002;-73
2023/08/23 03:22:04;;;;;;;20.25;10.90;;;;;;;32.68;43.04;101159.88;143717;589;47006;-73
2023/08/23 03:24:30;;;;;;;20.12;12.55;;;;;;;32.65;42.39;101160.56;143719;576;47006;-74
2023/08/23 03:26:56;;;;;;;13.30;10.63;;;;;;;32.66;42.27;101164.94;143717;581;46008;-74
2023/08/23 03:29:22;;;;;;;19.37;10.90;;;;;;;32.64;42.12;101170.06;143715;600;47004;-73
2023/08/23 03:31:49;;;;;;;13.10;11.12;;;;;;;32.65;41.52;101158.59;143715;603;47006;-74
2023/08/23 03:34:15;;;;;;;15.02;10.75;;;;;;;32.66;42.20;101159.37;143713;579;47002;-74
2023/08/23 03:36:41;;;;;;;21.05;11.65;;;;;;;32.65;42.48;101171.69;143716;587;47010;-74
2023/08/23 03:39:08;;;;;;;18.50;11.88;;;;;;;32.62;42.79;101169.59;143714;630;47004;-74
2023/08/23 03:41:34;;;;;;;16.45;11.07;;;;;;;32.63;42.38;101166.44;143716;569;47006;-72
2023/08/23 03:44:00;;;;;;;15.07;10.77;;;;;;;32.65;43.21;101160.56;143719;600;47006;-72
2023/08/23 03:46:26;;;;;;;19.42;12.15;;;;;;;32.56;43.04;101160.62;143715;613;47011;-72
2023/08/23 03:48:53;;;;;;;15.65;11.95;;;;;;;32.60;42.32;101164.34;143717;586;47008;-73
2023/08/23 03:51:19;;;;;;;15.05;11.57;;;;;;;32.56;43.26;101163.41;143716;625;47006;-74
2023/08/23 03:53:45;;;;;;;17.67;11.68;;;;;;;32.55;43.06;101164.56;143715;572;47002;-73
2023/08/23 03:56:11;;;;;;;25.62;12.15;;;;;;;32.54;43.53;101171.28;143717;568;47010;-74
2023/08/23 03:58:38;;;;;;;18.40;12.15;;;;;;;32.55;43.04;101177.62;143715;568;47004;-74
2023/08/23 04:01:04;;;;;;;32.75;13.32;;;;;;;32.58;42.86;101174.97;143716;583;47007;-73
2023/08/23 04:03:30;;;;;;;14.70;11.57;;;;;;;32.59;42.53;101171.06;143716;567;47002;-73
2023/08/23 04:05:57;;;;;;;14.05;12.25;;;;;;;32.44;42.61;101175.28;143717;599;47010;-73
2023/08/23 04:08:23;;;;;;;13.32;11.35;;;;;;;32.57;42.52;101175.34;143712;568;47933;-73
2023/08/23 04:10:50;;;;;;;17.15;12.35;;;;;;;32.61;43.68;101179.06;143715;606;47923;-74
2023/08/23 04:13:17;;;;;;;12.90;11.60;;;;;;;32.55;44.67;101189.59;143715;573;47002;-73
2023/08/23 04:15:46;;;;;;;24.65;12.45;;;;;;;32.59;44.71;101184.97;143718;587;46023;-74
2023/08/23 04:18:13;;;;;;;19.12;12.93;;;;;;;32.59;44.50;101178.59;143715;611;47004;-74
2023/08/23 04:20:39;;;;;;;22.13;12.00;;;;;;;32.56;44.87;101168.97;143718;597;46006;-74
2023/08/23 04:23:06;;;;;;;13.23;11.93;;;;;;;32.54;45.43;101162.94;143715;591;47004;-74
2023/08/23 04:25:32;;;;;;;16.77;11.90;;;;;;;32.48;44.98;101159.50;143716;567;47010;-75
2023/08/23 04:27:58;;;;;;;18.40;12.37;;;;;;;32.45;45.32;101171.34;143715;632;47004;-73
2023/08/23 04:30:25;;;;;;;21.65;13.45;;;;;;;32.46;44.74;101180.47;143714;619;47004;-75
2023/08/23 04:32:51;;;;;;;24.23;12.35;;;;;;;32.42;44.41;101185.06;143713;694;47006;-74
2023/08/23 04:35:17;;;;;;;23.45;12.30;;;;;;;32.43;44.44;101179.19;143717;592;47008;-74
2023/08/23 04:37:43;;;;;;;17.08;12.30;;;;;;;32.45;44.10;101179.69;143719;605;46027;-74
2023/08/23 04:40:10;;;;;;;18.60;12.45;;;;;;;32.43;44.66;101178.38;143718;668;46006;-74
2023/08/23 04:42:38;;;;;;;17.25;12.88;;;;;;;32.42;44.83;101176.75;143715;585;47002;-74
2023/08/23 04:45:05;;;;;;;24.45;12.60;;;;;;;32.40;45.17;101188.22;143716;587;47009;-75
2023/08/23 04:47:32;;;;;;;23.48;12.90;;;;;;;32.37;45.10;101185.28;143717;640;46008;-73
2023/08/23 04:49:58;;;;;;;17.73;12.73;;;;;;;32.44;45.41;101188.34;143718;665;46020;-72
2023/08/23 04:52:24;;;;;;;22.95;12.20;;;;;;;32.47;46.58;101185.72;143712;615;49004;-74
2023/08/23 04:54:51;;;;;;;22.00;12.60;;;;;;;32.54;45.41;101187.13;143715;569;47008;-73
2023/08/23 04:57:17;;;;;;;20.92;12.65;;;;;;;32.57;46.71;101192.03;143716;572;47008;-73
2023/08/23 04:59:43;;;;;;;22.10;13.30;;;;;;;32.54;46.99;101201.03;143717;574;47006;-74
2023/08/23 05:02:10;;;;;;;20.58;12.93;;;;;;;32.60;47.65;101202.47;143713;661;47006;-74
2023/08/23 05:04:36;;;;;;;26.45;12.45;;;;;;;32.57;45.10;101192.03;143715;597;47004;-73
2023/08/23 05:07:03;;;;;;;17.00;13.60;;;;;;;32.66;44.66;101185.25;143714;635;47004;-73
2023/08/23 05:09:30;;;;;;;24.35;13.05;;;;;;;32.77;44.36;101196.78;143714;576;47922;-74
2023/08/23 05:11:56;;;;;;;20.02;12.35;;;;;;;32.85;44.50;101189.53;143715;573;47002;-73
2023/08/23 05:14:23;;;;;;;16.55;11.95;;;;;;;32.88;45.44;101197.22;143715;593;47004;-74
2023/08/23 05:16:49;;;;;;;20.17;12.82;;;;;;;32.88;47.25;101204.72;143716;568;47004;-74
2023/08/23 05:19:15;;;;;;;19.45;11.93;;;;;;;32.85;47.45;101202.63;143715;597;47006;-74
2023/08/23 05:21:41;;;;;;;18.17;12.50;;;;;;;32.88;44.87;101191.66;143715;704;47002;-73
2023/08/23 05:24:08;;;;;;;21.42;12.80;;;;;;;32.97;44.34;101194.38;143716;615;47004;-73
2023/08/23 05:26:34;;;;;;;21.67;12.07;;;;;;;33.06;46.67;101199.84;143715;594;47012;-74
2023/08/23 05:29:00;;;;;;;20.55;13.55;;;;;;;33.04;48.19;101210.50;143716;569;47007;-75
2023/08/23 05:31:26;;;;;;;20.05;12.68;;;;;;;33.02;48.93;101204.47;143715;606;47002;-75
2023/08/23 05:33:53;;;;;;;15.68;12.13;;;;;;;33.01;47.17;101205.63;143715;625;47010;-74
2023/08/23 05:36:19;;;;;;;20.62;12.57;;;;;;;33.09;46.46;101201.97;143710;567;47008;-74
2023/08/23 05:38:47;;;;;;;20.92;12.52;;;;;;;33.18;46.38;101205.47;143718;614;46006;-74
2023/08/23 05:41:13;;;;;;;20.77;12.37;;;;;;;33.23;46.16;101202.47;143714;638;47004;-75
2023/08/23 05:43:39;;;;;;;18.50;12.40;;;;;;;33.32;47.83;101204.34;143716;641;47008;-75
2023/08/23 05:46:06;;;;;;;16.42;13.10;;;;;;;33.35;47.14;101204.50;143713;638;47004;-75
2023/08/23 05:48:34;;;;;;;23.02;12.75;;;;;;;33.44;45.04;101209.16;143717;598;46006;-74
2023/08/23 05:51:04;;;;;;;19.20;12.70;;;;;;;33.54;45.63;101203.97;143715;569;47002;-74
2023/08/23 05:53:31;;;;;;;15.48;12.90;;;;;;;33.61;47.99;101216.53;143715;616;47008;-74
2023/08/23 05:55:57;;;;;;;17.33;11.95;;;;;;;33.67;47.97;101209.56;143715;615;47008;-74
2023/08/23 05:58:25;;;;;;;15.98;12.10;;;;;;;33.71;46.84;101224.44;143717;587;47006;-74
2023/08/23 06:00:52;;;;;;;22.08;12.02;;;;;;;33.79;46.22;101222.69;143715;642;47004;-74
2023/08/23 06:03:18;;;;;;;19.30;12.48;;;;;;;33.83;45.77;101210.50;143717;582;47008;-74
2023/08/23 06:05:45;;;;;;;24.55;13.50;;;;;;;33.90;46.20;101209.16;143714;601;47933;-74
2023/08/23 06:08:11;;;;;;;21.42;12.88;;;;;;;33.91;43.76;101208.81;143714;608;47002;-74
2023/08/23 06:10:38;;;;;;;17.17;13.20;;;;;;;33.95;43.74;101215.31;143716;572;47004;-74
2023/08/23 06:13:04;;;;;;;15.23;13.57;;;;;;;34.06;44.98;101226.81;143716;570;47008;-73
2023/08/23 06:15:30;;;;;;;19.87;12.73;;;;;;;34.14;45.67;101220.34;143714;581;47004;-74
2023/08/23 06:17:57;;;;;;;17.75;13.57;;;;;;;34.19;43.10;101219.28;143716;592;46014;-74
2023/08/23 06:20:23;;;;;;;21.77;12.68;;;;;;;34.15;42.16;101218.34;143715;660;47004;-74
2023/08/23 06:22:49;;;;;;;15.20;13.40;;;;;;;34.21;42.24;101216.13;143711;575;48004;-73
2023/08/23 06:25:15;;;;;;;21.77;13.98;;;;;;;34.27;42.44;101217.53;143715;573;47004;-73
2023/08/23 06:27:44;;;;;;;15.25;13.57;;;;;;;34.35;43.23;101224.16;143714;592;47000;-74
2023/08/23 06:30:11;;;;;;;16.27;13.85;;;;;;;34.42;46.28;101211.28;143714;579;47002;-72
2023/08/23 06:32:37;;;;;;;19.70;15.25;;;;;;;34.40;46.39;101205.19;143717;567;47010;-72
2023/08/23 06:35:04;;;;;;;19.92;15.82;;;;;;;34.43;43.98;101203.72;143713;580;47004;-74
2023/08/23 06:37:30;;;;;;;20.58;15.32;;;;;;;34.42;43.96;101205.69;143714;588;47923;-73
2023/08/23 06:39:57;;;;;;;16.90;15.25;;;;;;;34.47;46.09;101215.78;143716;609;47002;-73
2023/08/23 06:42:23;;;;;;;21.62;15.10;;;;;;;34.48;46.97;101214.62;143715;573;47004;-73
2023/08/23 06:44:49;;;;;;;18.15;13.90;;;;;;;34.53;45.13;101208.00;143713;609;47004;-74
2023/08/23 06:47:15;;;;;;;21.55;14.55;;;;;;;34.64;45.29;101214.72;143716;590;46006;-74
2023/08/23 06:49:42;;;;;;;19.20;14.82;;;;;;;34.61;46.26;101212.63;143717;614;47006;-74
2023/08/23 06:52:08;;;;;;;21.02;16.25;;;;;;;34.60;42.91;101213.81;143714;586;47010;-74
2023/08/23 06:54:34;;;;;;;31.15;15.50;;;;;;;34.65;42.92;101212.75;143715;585;47004;-73
2023/08/23 06:57:00;;;;;;;20.15;15.57;;;;;;;34.72;43.04;101212.97;143717;574;47006;-73
2023/08/23 06:59:27;;;;;;;20.55;15.73;;;;;;;34.79;42.09;101215.94;143718;589;47000;-73
2023/08/23 07:01:53;;;;;;;23.10;15.20;;;;;;;34.89;43.95;101218.25;143717;617;47008;-72
2023/08/23 07:04:19;;;;;;;20.60;17.58;;;;;;;34.97;42.20;101210.09;143716;638;47004;-74
2023/08/23 07:06:45;;;;;;;24.42;14.95;;;;;;;34.95;41.44;101207.69;143716;577;47006;-70
2023/08/23 07:09:12;;;;;;;23.95;15.93;;;;;;;35.03;41.51;101209.53;143714;599;47004;-71
2023/08/23 07:11:38;;;;;;;17.95;15.00;;;;;;;35.10;42.48;101211.72;143715;575;47010;-71
2023/08/23 07:14:06;;;;;;;25.23;15.23;;;;;;;35.12;41.22;101219.72;143712;586;47004;-73
2023/08/23 07:16:33;;;;;;;23.08;16.27;;;;;;;35.24;42.37;101218.84;143715;635;47006;-72
2023/08/23 07:19:01;;;;;;;22.73;16.40;;;;;;;35.32;41.58;101209.50;143714;570;47004;-72
2023/08/23 07:21:28;;;;;;;23.02;16.70;;;;;;;35.38;42.66;101210.06;143716;587;47008;-72
2023/08/23 07:23:54;;;;;;;24.92;16.20;;;;;;;35.42;41.87;101222.12;143715;595;47004;-73
2023/08/23 07:26:20;;;;;;;16.90;15.23;;;;;;;35.44;42.69;101212.25;143717;593;47006;-72
2023/08/23 07:28:46;;;;;;;19.17;15.60;;;;;;;35.52;42.40;101216.06;143719;648;47007;-72
2023/08/23 07:31:13;;;;;;;18.37;15.65;;;;;;;35.59;40.43;101210.63;143716;593;47010;-72
2023/08/23 07:33:39;;;;;;;20.85;16.08;;;;;;;35.65;39.96;101216.81;143715;567;47004;-71
2023/08/23 07:36:07;;;;;;;21.77;18.45;;;;;;;35.73;40.50;101203.81;143714;576;47006;-72
2023/08/23 07:38:33;;;;;;;25.92;23.30;;;;;;;35.77;39.21;101205.53;143714;572;47002;-71
2023/08/23 07:41:01;;;;;;;21.50;19.40;;;;;;;35.85;39.57;101200.94;143716;616;47010;-71
2023/08/23 07:43:27;;;;;;;31.80;21.42;;;;;;;35.91;40.97;101193.91;143716;610;47004;-71
2023/08/23 07:45:55;;;;;;;31.62;21.98;;;;;;;35.97;39.64;101197.25;143718;629;46006;-70
2023/08/23 07:48:23;;;;;;;25.70;20.20;;;;;;;36.06;39.08;101205.47;143716;570;48000;-70
2023/08/23 07:50:55;;;;;;;30.58;20.85;;;;;;;36.15;38.55;101197.66;143717;615;47010;-70
2023/08/23 07:53:23;;;;;;;27.90;21.35;;;;;;;36.23;38.88;101204.25;143716;591;47004;-72
2023/08/23 07:55:49;;;;;;;25.35;21.37;;;;;;;36.30;38.12;101201.62;143717;727;47006;-72
2023/08/23 07:58:16;;;;;;;26.90;23.58;;;;;;;36.34;37.56;101207.28;143717;582;47000;-71
2023/08/23 08:00:42;;;;;;;30.23;24.90;;;;;;;36.46;37.05;101200.78;143716;593;47010;-70
2023/08/23 08:03:12;;;;;;;21.42;19.17;;;;;;;36.59;37.32;101201.47;143715;608;47933;-71
2023/08/23 08:05:38;;;;;;;21.70;19.27;;;;;;;36.63;37.69;101211.56;143718;761;46007;-72
2023/08/23 08:08:05;;;;;;;27.08;18.87;;;;;;;36.72;39.25;101202.97;143716;833;47002;-71
2023/08/23 08:10:32;;;;;;;25.90;22.95;;;;;;;36.79;39.28;101205.09;143712;619;47010;-71
2023/08/23 08:12:58;;;;;;;22.75;19.87;;;;;;;36.86;38.36;101197.66;143716;712;47004;-71
2023/08/23 08:15:26;;;;;;;25.20;19.45;;;;;;;36.85;37.83;101198.03;143718;622;47006;-71
2023/08/23 08:17:52;;;;;;;32.67;21.67;;;;;;;36.92;37.19;101200.16;143714;580;47002;-71
2023/08/23 08:20:20;;;;;;;24.45;21.45;;;;;;;36.97;36.83;101194.31;143717;567;46010;-71
2023/08/23 08:22:47;;;;;;;32.20;28.25;;;;;;;36.98;37.34;101195.91;143719;574;46008;-71
2023/08/23 08:25:13;;;;;;;30.92;27.77;;;;;;;37.04;37.01;101199.25;143717;581;47000;-71
2023/08/23 08:27:40;;;;;;;28.90;25.73;;;;;;;37.09;41.37;101208.16;143714;573;47002;-71
2023/08/23 08:30:07;;;;;;;24.95;22.05;;;;;;;36.76;42.40;101203.84;143717;591;46926;-71
2023/08/23 08:32:34;;;;;;;29.02;22.40;;;;;;;36.74;43.54;101210.97;143713;579;47004;-70
2023/08/23 08:35:04;;;;;;;24.05;21.45;;;;;;;36.66;47.51;101212.81;143715;676;47007;-72
2023/08/23 08:37:30;;;;;;;31.05;25.02;;;;;;;36.80;44.15;101201.91;143715;624;47004;-71
2023/08/23 08:39:56;;;;;;;27.65;23.95;;;;;;;36.89;45.46;101207.28;143716;690;47010;-71
2023/08/23 08:42:23;;;;;;;34.28;23.70;;;;;;;37.01;45.78;101209.16;143715;670;47005;-71
2023/08/23 08:44:49;;;;;;;31.05;25.17;;;;;;;36.92;43.77;101205.78;143718;722;46923;-72
2023/08/23 08:47:16;;;;;;;33.33;27.48;;;;;;;36.85;42.65;101209.22;143716;596;47010;-70
2023/08/23 08:49:42;;;;;;;27.55;24.65;;;;;;;37.02;43.48;101208.00;143717;612;47010;-71
2023/08/23 08:52:12;;;;;;;33.72;29.15;;;;;;;37.12;41.83;101206.59;143715;599;47004;-71
2023/08/23 08:54:41;;;;;;;32.20;27.00;;;;;;;37.27;42.21;101210.47;143718;641;46006;-71
2023/08/23 08:57:09;;;;;;;27.92;24.95;;;;;;;37.19;46.51;101206.75;143717;604;47004;-71
2023/08/23 08:59:36;;;;;;;33.78;30.00;;;;;;;37.26;44.05;101201.25;143716;586;47011;-69
2023/08/23 09:02:08;;;;;;;38.08;34.10;;;;;;;37.34;41.46;101199.41;143713;576;47004;-70
2023/08/23 09:04:34;;;;;;;41.90;36.85;;;;;;;37.41;40.41;101207.16;143716;616;47006;-72
2023/08/23 09:07:00;;;;;;;39.00;34.55;;;;;;;37.50;41.20;101199.31;143715;603;47004;-71
2023/08/23 09:09:26;;;;;;;33.85;30.30;;;;;;;37.44;44.05;101204.44;143717;590;47010;-71
2023/08/23 09:11:53;;;;;;;34.42;31.15;;;;;;;37.54;42.88;101196.56;143711;696;47008;-71
2023/08/23 09:14:25;;;;;;;38.95;32.65;;;;;;;37.70;41.84;101196.47;143719;623;46021;-71
2023/08/23 09:16:51;;;;;;;36.47;33.08;;;;;;;37.85;40.04;101187.09;143717;573;47002;-71
2023/08/23 09:19:17;;;;;;;33.58;30.12;;;;;;;37.92;39.71;101170.44;143714;574;47008;-72
2023/08/23 09:21:45;;;;;;;34.05;30.60;;;;;;;38.00;40.45;101176.97;143710;622;51011;-71
2023/08/23 09:24:12;;;;;;;40.63;33.22;;;;;;;38.26;39.86;101191.34;143719;572;47006;-70
2023/08/23 09:26:39;;;;;;;36.30;32.83;;;;;;;38.18;39.02;101182.03;143717;584;47002;-71
2023/08/23 09:29:05;;;;;;;33.28;29.87;;;;;;;38.22;39.44;101180.06;143716;634;47008;-71
2023/08/23 09:31:32;;;;;;;30.15;26.73;;;;;;;38.29;39.70;101187.78;143715;573;47004;-71
2023/08/23 09:34:00;;;;;;;27.95;23.25;;;;;;;38.23;40.62;101187.28;143720;595;47006;-71
2023/08/23 09:36:30;;;;;;;25.92;22.58;;;;;;;37.85;39.80;101189.91;143717;572;47005;-70
2023/08/23 09:39:00;;;;;;;23.50;20.10;;;;;;;37.72;40.23;101197.69;143716;607;48924;-71
2023/08/23 09:41:26;;;;;;;21.50;19.50;;;;;;;37.64;39.23;101186.72;143714;583;47004;-71
2023/08/23 09:43:54;;;;;;;24.90;20.08;;;;;;;37.94;39.38;101186.88;143715;589;47004;-71
2023/08/23 09:46:25;;;;;;;24.98;18.90;;;;;;;38.05;38.13;101185.03;143719;584;47002;-70
2023/08/23 09:48:56;;;;;;;24.10;17.27;;;;;;;38.34;37.76;101191.06;143718;578;47008;-72
2023/08/23 09:51:24;;;;;;;18.67;17.02;;;;;;;38.25;35.56;101184.12;143715;574;47004;-70
2023/08/23 09:53:58;;;;;;;16.70;14.90;;;;;;;38.16;36.94;101190.78;143718;584;47006;-71
2023/08/23 09:56:25;;;;;;;19.12;15.90;;;;;;;38.26;38.41;101192.16;143716;589;47002;-71
2023/08/23 09:58:53;;;;;;;19.52;15.55;;;;;;;38.12;42.32;101180.72;143717;581;47008;-71
2023/08/23 10:01:19;;;;;;;21.45;16.87;;;;;;;38.30;41.83;101175.38;143715;567;47004;-69
2023/08/23 10:03:45;;;;;;;19.50;17.70;;;;;;;38.40;40.53;101173.91;143719;590;46008;-71
2023/08/23 10:06:12;;;;;;;17.75;16.05;;;;;;;38.44;36.95;101177.59;143717;598;47002;-70
2023/08/23 10:08:39;;;;;;;18.65;16.85;;;;;;;38.17;36.41;101169.19;143718;600;47008;-70
2023/08/23 10:11:05;;;;;;;21.10;18.75;;;;;;;38.33;36.30;101167.00;143716;572;47004;-71
2023/08/23 10:13:34;;;;;;;21.35;18.23;;;;;;;38.33;35.67;101171.78;143719;575;47006;-71
2023/08/23 10:16:03;;;;;;;22.95;20.62;;;;;;;38.11;35.85;101167.88;143716;669;47004;-70
2023/08/23 10:18:31;;;;;;;21.40;19.20;;;;;;;38.22;35.85;101175.28;143718;569;47010;-70
2023/08/23 10:20:57;;;;;;;19.55;17.65;;;;;;;38.44;35.27;101169.16;143717;569;47004;-70
2023/08/23 10:23:23;;;;;;;36.22;19.33;;;;;;;38.56;35.49;101168.13;143720;595;47006;-70
2023/08/23 10:25:50;;;;;;;20.23;18.33;;;;;;;38.56;34.89;101168.94;143719;617;47006;-71
2023/08/23 10:28:18;;;;;;;24.60;18.30;;;;;;;38.64;35.07;101170.62;143719;592;46011;-72
2023/08/23 10:30:46;;;;;;;20.35;18.12;;;;;;;38.23;34.01;101176.06;143716;578;47004;-71
2023/08/23 10:33:16;;;;;;;23.77;20.95;;;;;;;38.08;34.09;101166.66;143720;644;46923;-71
2023/08/23 10:35:44;;;;;;;24.48;22.08;;;;;;;38.15;33.92;101163.94;143717;584;47005;-73
2023/08/23 10:38:11;;;;;;;30.00;23.10;;;;;;;38.07;34.33;101165.81;143715;628;47925;-70
2023/08/23 10:40:40;;;;;;;25.98;23.23;;;;;;;38.13;34.94;101160.69;143717;611;47008;-71
2023/08/23 10:43:19;;;;;;;24.95;22.45;;;;;;;37.77;36.49;101165.75;143719;589;46007;-66
2023/08/23 10:46:02;;;;;;;26.02;23.00;;;;;;;37.93;35.90;101160.00;143717;572;47004;-68
2023/08/23 10:48:29;;;;;;;24.15;21.67;;;;;;;38.03;34.86;101161.34;143715;581;47010;-67
2023/08/23 10:50:55;;;;;;;22.42;19.98;;;;;;;38.11;35.24;101159.47;143719;614;46012;-66
2023/08/23 10:53:22;;;;;;;23.10;20.73;;;;;;;38.10;34.88;101160.66;143716;596;47006;-66
2023/08/23 10:55:48;;;;;;;22.10;20.05;;;;;;;38.01;34.84;101156.16;143721;578;46010;-67
2023/08/23 10:58:16;;;;;;;21.77;19.40;;;;;;;38.15;35.21;101160.34;143710;572;52926;-68
2023/08/23 11:00:43;;;;;;;21.40;19.12;;;;;;;38.16;35.85;101161.97;143716;597;47004;-67
2023/08/23 11:03:11;;;;;;;22.25;18.08;;;;;;;38.26;36.06;101150.06;143717;574;47006;-68
2023/08/23 11:05:37;;;;;;;19.55;17.45;;;;;;;38.41;37.05;101148.31;143717;587;47002;-65
2023/08/23 11:08:04;;;;;;;19.58;17.30;;;;;;;38.29;37.20;101165.34;143718;632;47008;-67
2023/08/23 11:10:30;;;;;;;18.95;16.35;;;;;;;38.21;38.77;101156.81;143716;599;47004;-62
2023/08/23 11:12:57;;;;;;;19.00;17.15;;;;;;;38.26;39.48;101164.09;143718;573;47007;-64
2023/08/23 11:15:24;;;;;;;18.30;16.42;;;;;;;38.28;39.78;101150.50;143721;605;46010;-65
2023/08/23 11:17:51;;;;;;;17.65;16.02;;;;;;;38.31;37.47;101146.13;143718;569;47004;-63
2023/08/23 11:20:17;;;;;;;19.25;16.25;;;;;;;38.36;38.21;101151.41;143714;592;47004;-62
2023/08/23 11:22:44;;;;;;;17.85;16.00;;;;;;;38.47;37.19;101134.75;143720;746;47006;-60
2023/08/23 11:25:10;;;;;;;16.90;15.13;;;;;;;38.70;37.87;101139.44;143717;590;47004;-62
2023/08/23 11:27:37;;;;;;;16.25;14.70;;;;;;;38.51;37.02;101136.38;143720;573;46011;-61
2023/08/23 11:30:04;;;;;;;17.83;13.35;;;;;;;38.27;38.19;101137.66;143718;569;47012;-62
2023/08/23 11:32:31;;;;;;;17.83;14.07;;;;;;;38.34;38.54;101137.75;143719;575;46008;-62
2023/08/23 11:34:58;;;;;;;16.87;14.05;;;;;;;38.53;37.88;101127.59;143722;721;46013;-62
2023/08/23 11:37:24;;;;;;;16.05;14.25;;;;;;;38.50;38.15;101120.75;143717;579;47923;-63
2023/08/23 11:40:02;;;;;;;17.08;12.32;;;;;;;38.31;38.74;101116.06;143716;611;47006;-62
2023/08/23 11:42:29;;;;;;;15.07;13.45;;;;;;;38.46;39.40;101113.47;143718;587;47008;-63
2023/08/23 11:44:56;;;;;;;17.05;15.35;;;;;;;38.71;39.23;101116.56;143717;569;47006;-63
2023/08/23 11:47:26;;;;;;;15.10;13.35;;;;;;;38.86;37.69;101119.56;143718;568;47010;-64
2023/08/23 11:49:52;;;;;;;15.07;12.75;;;;;;;38.88;38.00;101118.00;143716;582;47007;-63
2023/08/23 11:52:19;;;;;;;14.77;13.20;;;;;;;38.68;37.70;101114.53;143718;588;47008;-63
2023/08/23 11:54:46;;;;;;;15.02;13.57;;;;;;;38.48;39.20;101109.09;143722;681;46008;-62
2023/08/23 11:57:18;;;;;;;14.05;12.65;;;;;;;38.44;38.94;101107.44;143718;580;47011;-64
2023/08/23 11:59:45;;;;;;;16.10;14.55;;;;;;;38.44;39.60;101104.63;143715;568;47006;-63
2023/08/23 12:02:11;;;;;;;15.52;13.25;;;;;;;38.59;39.49;101103.59;143717;574;47002;-63
2023/08/23 12:04:44;;;;;;;15.15;13.57;;;;;;;38.51;39.83;101111.13;143717;584;47015;-64
2023/08/23 12:07:12;;;;;;;15.25;13.85;;;;;;;38.50;39.67;101103.91;143719;617;47012;-63
2023/08/23 12:09:39;;;;;;;15.40;13.82;;;;;;;38.76;40.42;101104.19;143716;572;47006;-63
2023/08/23 12:12:06;;;;;;;13.85;11.88;;;;;;;38.78;40.21;101102.63;143718;651;47008;-63
2023/08/23 12:14:33;;;;;;;15.60;12.70;;;;;;;38.70;40.25;101102.94;143717;589;47006;-64
2023/08/23 12:16:59;;;;;;;16.77;12.80;;;;;;;38.51;40.91;101097.09;143717;577;47006;-63
2023/08/23 12:19:25;;;;;;;15.70;14.13;;;;;;;38.64;40.40;101099.66;143716;589;48004;-63
2023/08/23 12:21:52;;;;;;;14.02;12.55;;;;;;;38.58;40.24;101101.19;143720;589;47008;-64
2023/08/23 12:24:19;;;;;;;13.23;12.02;;;;;;;38.41;40.66;101086.56;143718;629;47006;-62
2023/08/23 12:26:45;;;;;;;16.85;12.15;;;;;;;38.46;40.36;101089.03;143719;644;47011;-64
2023/08/23 12:29:11;;;;;;;13.55;12.13;;;;;;;38.55;40.17;101080.31;143719;596;47006;-63
2023/08/23 12:31:38;;;;;;;15.85;12.15;;;;;;;38.49;39.31;101081.84;143717;586;47008;-63
2023/08/23 12:34:04;;;;;;;12.88;11.30;;;;;;;38.46;37.33;101079.81;143717;576;47006;-64
2023/08/23 12:36:31;;;;;;;15.82;10.73;;;;;;;38.41;37.40;101074.53;143716;689;47010;-62
2023/08/23 12:38:58;;;;;;;14.98;11.55;;;;;;;38.39;38.04;101074.13;143715;612;47006;-61
2023/08/23 12:41:27;;;;;;;12.57;11.20;;;;;;;38.20;38.00;101082.28;143720;593;46009;-62
2023/08/23 12:43:54;;;;;;;12.30;10.77;;;;;;;38.37;37.51;101082.91;143718;592;47006;-64
2023/08/23 12:46:20;;;;;;;13.60;12.20;;;;;;;38.43;37.96;101080.56;143718;637;47010;-63
2023/08/23 12:48:46;;;;;;;13.20;11.82;;;;;;;38.57;37.67;101077.91;143718;573;47006;-63
2023/08/23 12:51:13;;;;;;;12.73;11.48;;;;;;;38.60;37.46;101082.78;143721;590;46008;-64
2023/08/23 12:53:41;;;;;;;16.42;11.95;;;;;;;38.41;38.04;101086.56;143718;567;47004;-64
2023/08/23 12:56:08;;;;;;;15.20;11.93;;;;;;;38.38;37.45;101081.72;143715;654;48923;-64
2023/08/23 12:58:34;;;;;;;13.73;12.32;;;;;;;38.42;38.55;101078.94;143716;581;47931;-62
2023/08/23 13:01:00;;;;;;;14.57;13.02;;;;;;;38.30;38.73;101080.78;143716;588;47004;-63
2023/08/23 13:03:26;;;;;;;14.38;12.98;;;;;;;38.12;39.85;101085.38;143717;606;47006;-63
2023/08/23 13:05:53;;;;;;;16.90;14.23;;;;;;;37.94;40.74;101073.91;143719;678;47010;-63
2023/08/23 13:08:19;;;;;;;15.55;13.95;;;;;;;38.01;41.24;101076.81;143719;641;47006;-63